createdAt,value
2019-02-26T00:00:04.844Z,2.00
2019-02-26T00:01:05.064Z,2.00
2019-02-26T00:02:05.161Z,2.00
2019-02-26T00:03:04.842Z,2.00
2019-02-26T00:04:04.886Z,2.00
2019-02-26T00:05:04.422Z,2.00
2019-02-26T00:06:04.828Z,2.00
2019-02-26T00:07:05.107Z,2.00
2019-02-26T00:08:04.423Z,2.00
2019-02-26T00:09:04.844Z,2.00
2019-02-26T00:10:06.966Z,2.00
2019-02-26T00:11:06.538Z,1.90
2019-02-26T00:12:04.803Z,1.90
2019-02-26T00:13:04.180Z,1.90
2019-02-26T00:14:04.979Z,1.90
2019-02-26T00:15:04.570Z,1.90
2019-02-26T00:16:07.555Z,1.90
2019-02-26T00:17:06.335Z,1.80
2019-02-26T00:18:07.415Z,1.90
2019-02-26T00:19:07.039Z,1.80
2019-02-26T00:20:05.740Z,1.80
2019-02-26T00:21:04.984Z,1.80
2019-02-26T00:22:04.907Z,1.80
2019-02-26T00:23:04.425Z,1.80
2019-02-26T00:24:04.958Z,1.80
2019-02-26T00:25:06.242Z,1.80
2019-02-26T00:26:04.598Z,1.80
2019-02-26T00:27:05.476Z,1.80
2019-02-26T00:28:04.704Z,1.80
2019-02-26T00:29:10.081Z,1.80
2019-02-26T00:30:04.396Z,1.80
2019-02-26T00:31:05.967Z,1.80
2019-02-26T00:32:04.767Z,1.80
2019-02-26T00:33:05.211Z,1.80
2019-02-26T00:34:05.913Z,1.80
2019-02-26T00:35:04.914Z,1.70
2019-02-26T00:36:06.228Z,1.80
2019-02-26T00:37:06.194Z,1.70
2019-02-26T00:38:04.955Z,1.70
2019-02-26T00:39:05.094Z,1.70
2019-02-26T00:40:04.826Z,1.70
2019-02-26T00:41:05.890Z,1.70
2019-02-26T00:42:05.341Z,1.70
2019-02-26T00:43:06.540Z,1.70
2019-02-26T00:44:06.084Z,1.60
2019-02-26T00:45:05.709Z,1.60
2019-02-26T00:46:05.544Z,1.60
2019-02-26T00:47:06.541Z,1.60
2019-02-26T00:48:04.472Z,1.60
2019-02-26T00:49:10.026Z,1.60
2019-02-26T00:50:05.112Z,1.60
2019-02-26T00:51:04.830Z,1.60
2019-02-26T00:52:06.325Z,1.60
2019-02-26T00:53:04.408Z,1.60
2019-02-26T00:54:04.789Z,1.60
2019-02-26T00:55:05.422Z,1.60
2019-02-26T00:56:05.609Z,1.60
2019-02-26T00:57:06.379Z,1.60
2019-02-26T00:58:05.821Z,1.50
2019-02-26T00:59:04.387Z,1.50
2019-02-26T01:00:05.321Z,1.50
2019-02-26T01:01:08.191Z,1.50
2019-02-26T01:02:04.292Z,1.50
2019-02-26T01:03:05.880Z,1.50
2019-02-26T01:04:05.087Z,1.40
2019-02-26T01:05:05.866Z,1.40
2019-02-26T01:06:05.841Z,1.40
2019-02-26T01:07:05.396Z,1.40
2019-02-26T01:08:06.137Z,1.40
2019-02-26T01:09:06.532Z,1.40
2019-02-26T01:10:04.683Z,1.40
2019-02-26T01:11:06.320Z,1.40
2019-02-26T01:12:06.537Z,1.30
2019-02-26T01:13:06.883Z,1.30
2019-02-26T01:14:05.107Z,1.30
2019-02-26T01:15:04.980Z,1.30
2019-02-26T01:16:04.782Z,1.30
2019-02-26T01:17:05.006Z,1.30
2019-02-26T01:18:05.572Z,1.30
2019-02-26T01:19:04.987Z,1.30
2019-02-26T01:20:05.721Z,1.30
2019-02-26T01:21:04.454Z,1.30
2019-02-26T01:22:05.104Z,1.30
2019-02-26T01:23:04.918Z,1.30
2019-02-26T01:24:06.000Z,1.30
2019-02-26T01:25:04.945Z,1.30
2019-02-26T01:26:05.007Z,1.30
2019-02-26T01:27:05.121Z,1.30
2019-02-26T01:28:04.767Z,1.30
2019-02-26T01:29:10.256Z,1.30
2019-02-26T01:30:04.604Z,1.20
2019-02-26T01:31:04.985Z,1.20
2019-02-26T01:32:08.832Z,1.20
2019-02-26T01:33:06.968Z,1.20
2019-02-26T01:34:05.127Z,1.20
2019-02-26T01:35:05.914Z,1.20
2019-02-26T01:36:05.008Z,1.20
2019-02-26T01:37:05.551Z,1.20
2019-02-26T01:38:04.186Z,1.20
2019-02-26T01:39:07.282Z,1.20
2019-02-26T01:40:07.309Z,1.20
2019-02-26T01:41:04.978Z,1.20
2019-02-26T01:42:04.375Z,1.10
2019-02-26T01:43:05.597Z,1.10
2019-02-26T01:44:04.310Z,1.10
2019-02-26T01:45:04.411Z,1.10
2019-02-26T01:46:04.763Z,1.10
2019-02-26T01:47:04.879Z,1.10
2019-02-26T01:48:06.305Z,1.10
2019-02-26T01:49:09.598Z,1.10
2019-02-26T01:50:06.256Z,1.10
2019-02-26T01:51:04.941Z,1.10
2019-02-26T01:52:06.210Z,1.10
2019-02-26T01:53:04.904Z,1.10
2019-02-26T01:54:05.643Z,1.10
2019-02-26T01:55:04.444Z,1.10
2019-02-26T01:56:05.225Z,1.10
2019-02-26T01:57:08.544Z,1.00
2019-02-26T01:58:04.656Z,1.00
2019-02-26T01:59:04.942Z,1.00
2019-02-26T02:00:06.405Z,1.00
2019-02-26T02:01:04.641Z,1.00
2019-02-26T02:02:04.809Z,1.00
2019-02-26T02:03:04.562Z,1.10
2019-02-26T02:04:04.888Z,1.00
2019-02-26T02:05:06.760Z,1.10
2019-02-26T02:06:06.174Z,1.10
2019-02-26T02:07:06.014Z,1.10
2019-02-26T02:08:04.882Z,1.10
2019-02-26T02:09:05.052Z,1.10
2019-02-26T02:10:04.437Z,1.10
2019-02-26T02:11:06.701Z,1.10
2019-02-26T02:12:06.469Z,1.10
2019-02-26T02:13:06.970Z,1.10
2019-02-26T02:14:05.948Z,1.00
2019-02-26T02:15:05.038Z,1.00
2019-02-26T02:16:06.559Z,1.00
2019-02-26T02:17:05.986Z,1.00
2019-02-26T02:18:06.181Z,1.00
2019-02-26T02:19:04.942Z,1.00
2019-02-26T02:20:07.661Z,1.00
2019-02-26T02:21:05.208Z,1.00
2019-02-26T02:22:04.554Z,1.00
2019-02-26T02:23:06.905Z,1.00
2019-02-26T02:24:05.707Z,1.00
2019-02-26T02:25:05.167Z,0.90
2019-02-26T02:26:04.766Z,0.90
2019-02-26T02:27:04.746Z,0.90
2019-02-26T02:28:04.983Z,0.90
2019-02-26T02:29:12.595Z,1.00
2019-02-26T02:30:04.546Z,1.00
2019-02-26T02:31:04.667Z,1.00
2019-02-26T02:32:04.940Z,1.00
2019-02-26T02:33:04.395Z,1.00
2019-02-26T02:34:04.826Z,0.90
2019-02-26T02:35:06.729Z,1.00
2019-02-26T02:36:04.420Z,1.00
2019-02-26T02:37:05.051Z,0.90
2019-02-26T02:38:04.976Z,0.90
2019-02-26T02:39:10.171Z,0.90
2019-02-26T02:40:04.855Z,0.90
2019-02-26T02:41:04.563Z,1.00
2019-02-26T02:42:04.733Z,1.00
2019-02-26T02:43:07.653Z,0.90
2019-02-26T02:44:04.586Z,0.90
2019-02-26T02:45:05.145Z,0.90
2019-02-26T02:46:04.616Z,0.90
2019-02-26T02:47:06.610Z,0.90
2019-02-26T02:48:06.205Z,0.90
2019-02-26T02:49:07.052Z,0.90
2019-02-26T02:50:05.710Z,0.90
2019-02-26T02:51:05.436Z,0.90
2019-02-26T02:52:06.467Z,0.90
2019-02-26T02:53:04.905Z,0.90
2019-02-26T02:54:05.113Z,0.90
2019-02-26T02:55:06.491Z,0.90
2019-02-26T02:56:06.276Z,0.90
2019-02-26T02:57:05.231Z,0.90
2019-02-26T02:58:04.297Z,0.90
2019-02-26T02:59:05.812Z,0.90
2019-02-26T03:00:06.133Z,0.90
2019-02-26T03:01:05.034Z,0.90
2019-02-26T03:02:05.147Z,0.90
2019-02-26T03:03:04.717Z,0.90
2019-02-26T03:04:04.919Z,0.90
2019-02-26T03:05:04.169Z,0.90
2019-02-26T03:06:04.831Z,0.90
2019-02-26T03:07:04.571Z,0.90
2019-02-26T03:08:04.577Z,0.90
2019-02-26T03:09:06.849Z,0.90
2019-02-26T03:10:06.643Z,0.90
2019-02-26T03:11:04.480Z,0.80
2019-02-26T03:12:05.131Z,0.80
2019-02-26T03:13:04.358Z,0.80
2019-02-26T03:14:06.131Z,0.80
2019-02-26T03:15:07.385Z,0.80
2019-02-26T03:16:04.387Z,0.80
2019-02-26T03:17:06.327Z,0.80
2019-02-26T03:18:06.990Z,0.80
2019-02-26T03:19:06.712Z,0.80
2019-02-26T03:20:05.541Z,0.80
2019-02-26T03:21:04.797Z,0.70
2019-02-26T03:22:04.702Z,0.70
2019-02-26T03:23:07.093Z,0.70
2019-02-26T03:24:06.052Z,0.70
2019-02-26T03:25:04.952Z,0.70
2019-02-26T03:26:04.920Z,0.70
2019-02-26T03:27:04.551Z,0.70
2019-02-26T03:28:04.996Z,0.70
2019-02-26T03:29:04.344Z,0.70
2019-02-26T03:30:04.641Z,0.70
2019-02-26T03:31:04.838Z,0.70
2019-02-26T03:32:05.208Z,0.70
2019-02-26T03:33:04.859Z,0.70
2019-02-26T03:34:09.060Z,0.70
2019-02-26T03:35:07.061Z,0.70
2019-02-26T03:36:06.085Z,0.70
2019-02-26T03:37:06.155Z,0.70
2019-02-26T03:38:04.176Z,0.70
2019-02-26T03:39:04.473Z,0.70
2019-02-26T03:40:06.429Z,0.60
2019-02-26T03:41:04.974Z,0.70
2019-02-26T03:42:04.347Z,0.60
2019-02-26T03:43:05.457Z,0.60
2019-02-26T03:44:06.241Z,0.60
2019-02-26T03:45:04.157Z,0.60
2019-02-26T03:46:04.427Z,0.60
2019-02-26T03:47:04.915Z,0.60
2019-02-26T03:48:04.207Z,0.60
2019-02-26T03:49:04.888Z,0.60
2019-02-26T03:50:08.512Z,0.60
2019-02-26T03:51:04.924Z,0.60
2019-02-26T03:52:04.301Z,0.60
2019-02-26T03:53:04.261Z,0.60
2019-02-26T03:54:04.550Z,0.60
2019-02-26T03:55:06.617Z,0.60
2019-02-26T03:56:07.928Z,0.60
2019-02-26T03:57:04.802Z,0.60
2019-02-26T03:58:04.749Z,0.60
2019-02-26T03:59:06.681Z,0.60
2019-02-26T04:00:06.418Z,0.60
2019-02-26T04:01:07.177Z,0.60
2019-02-26T04:02:04.338Z,0.60
2019-02-26T04:03:05.845Z,0.60
2019-02-26T04:04:05.330Z,0.60
2019-02-26T04:05:06.731Z,0.60
2019-02-26T04:06:07.299Z,0.60
2019-02-26T04:07:07.242Z,0.60
2019-02-26T04:08:05.190Z,0.60
2019-02-26T04:09:04.334Z,0.70
2019-02-26T04:10:04.286Z,0.60
2019-02-26T04:11:04.374Z,0.60
2019-02-26T04:12:04.981Z,0.60
2019-02-26T04:13:04.603Z,0.60
2019-02-26T04:14:04.771Z,0.70
2019-02-26T04:15:04.912Z,0.60
2019-02-26T04:16:04.622Z,0.70
2019-02-26T04:17:06.395Z,0.70
2019-02-26T04:18:04.414Z,0.70
2019-02-26T04:19:05.843Z,0.70
2019-02-26T04:20:05.565Z,0.70
2019-02-26T04:21:05.888Z,0.70
2019-02-26T04:22:04.916Z,0.70
2019-02-26T04:23:05.195Z,0.70
2019-02-26T04:24:05.809Z,0.70
2019-02-26T04:25:05.951Z,0.70
2019-02-26T04:26:04.795Z,0.70
2019-02-26T04:27:04.968Z,0.70
2019-02-26T04:28:05.160Z,0.70
2019-02-26T04:29:10.001Z,0.70
2019-02-26T04:30:05.829Z,0.70
2019-02-26T04:31:04.242Z,0.70
2019-02-26T04:32:04.984Z,0.70
2019-02-26T04:33:06.626Z,0.70
2019-02-26T04:34:06.087Z,0.70
2019-02-26T04:35:05.121Z,0.60
2019-02-26T04:36:04.603Z,0.60
2019-02-26T04:37:07.130Z,0.60
2019-02-26T04:38:06.239Z,0.60
2019-02-26T04:39:07.485Z,0.60
2019-02-26T04:40:07.528Z,0.60
2019-02-26T04:41:06.778Z,0.60
2019-02-26T04:42:05.476Z,0.60
2019-02-26T04:43:06.790Z,0.60
2019-02-26T04:44:06.076Z,0.60
2019-02-26T04:45:07.956Z,0.60
2019-02-26T04:46:05.684Z,0.60
2019-02-26T04:47:05.833Z,0.60
2019-02-26T04:48:04.655Z,0.60
2019-02-26T04:49:09.348Z,0.60
2019-02-26T04:50:06.154Z,0.60
2019-02-26T04:51:04.482Z,0.60
2019-02-26T04:52:05.614Z,0.60
2019-02-26T04:53:06.102Z,0.60
2019-02-26T04:54:04.852Z,0.70
2019-02-26T04:55:04.438Z,0.60
2019-02-26T04:56:05.977Z,0.60
2019-02-26T04:57:04.600Z,0.60
2019-02-26T04:58:04.886Z,0.60
2019-02-26T04:59:06.926Z,0.60
2019-02-26T05:00:07.209Z,0.60
2019-02-26T05:01:06.881Z,0.60
2019-02-26T05:02:04.661Z,0.60
2019-02-26T05:03:07.586Z,0.60
2019-02-26T05:04:04.237Z,0.60
2019-02-26T05:05:04.387Z,0.50
2019-02-26T05:06:05.775Z,0.50
2019-02-26T05:07:07.220Z,0.50
2019-02-26T05:08:06.803Z,0.50
2019-02-26T05:09:05.527Z,0.50
2019-02-26T05:10:04.976Z,0.50
2019-02-26T05:11:05.056Z,0.50
2019-02-26T05:12:04.756Z,0.50
2019-02-26T05:13:07.222Z,0.50
2019-02-26T05:14:06.776Z,0.50
2019-02-26T05:15:04.841Z,0.50
2019-02-26T05:16:04.439Z,0.50
2019-02-26T05:17:04.251Z,0.50
2019-02-26T05:18:04.930Z,0.50
2019-02-26T05:19:05.123Z,0.50
2019-02-26T05:20:06.244Z,0.50
2019-02-26T05:21:07.483Z,0.50
2019-02-26T05:22:06.897Z,0.50
2019-02-26T05:23:06.277Z,0.60
2019-02-26T05:24:04.337Z,0.60
2019-02-26T05:25:07.322Z,0.60
2019-02-26T05:26:05.529Z,0.60
2019-02-26T05:27:04.993Z,0.60
2019-02-26T05:28:06.440Z,0.60
2019-02-26T05:29:09.255Z,0.50
2019-02-26T05:30:04.576Z,0.50
2019-02-26T05:31:06.488Z,0.60
2019-02-26T05:32:07.099Z,0.50
2019-02-26T05:33:05.544Z,0.50
2019-02-26T05:34:04.213Z,0.50
2019-02-26T05:35:04.381Z,0.60
2019-02-26T05:36:06.127Z,0.60
2019-02-26T05:37:07.486Z,0.50
2019-02-26T05:38:06.698Z,0.60
2019-02-26T05:39:04.936Z,0.60
2019-02-26T05:40:06.490Z,0.60
2019-02-26T05:41:05.099Z,0.60
2019-02-26T05:42:06.256Z,0.60
2019-02-26T05:43:06.703Z,0.60
2019-02-26T05:44:07.340Z,0.60
2019-02-26T05:45:06.596Z,0.60
2019-02-26T05:46:04.935Z,0.60
2019-02-26T05:47:05.059Z,0.60
2019-02-26T05:48:04.274Z,0.60
2019-02-26T05:49:10.302Z,0.60
2019-02-26T05:50:06.860Z,0.60
2019-02-26T05:51:05.581Z,0.60
2019-02-26T05:52:06.911Z,0.60
2019-02-26T05:53:07.139Z,0.60
2019-02-26T05:54:07.625Z,0.60
2019-02-26T05:55:04.828Z,0.50
2019-02-26T05:56:05.186Z,0.60
2019-02-26T05:57:06.157Z,0.50
2019-02-26T05:58:04.567Z,0.50
2019-02-26T05:59:07.369Z,0.50
2019-02-26T06:00:04.551Z,0.50
2019-02-26T06:01:04.784Z,0.50
2019-02-26T06:02:04.690Z,0.50
2019-02-26T06:03:07.078Z,0.50
2019-02-26T06:04:06.744Z,0.50
2019-02-26T06:05:04.559Z,0.50
2019-02-26T06:06:04.616Z,0.50
2019-02-26T06:07:04.687Z,0.50
2019-02-26T06:08:04.537Z,0.50
2019-02-26T06:09:05.519Z,0.50
2019-02-26T06:10:04.317Z,0.50
2019-02-26T06:11:04.510Z,0.50
2019-02-26T06:12:04.808Z,0.50
2019-02-26T06:13:07.016Z,0.50
2019-02-26T06:14:07.074Z,0.50
2019-02-26T06:15:07.774Z,0.40
2019-02-26T06:16:06.937Z,0.40
2019-02-26T06:17:04.263Z,0.40
2019-02-26T06:18:04.605Z,0.40
2019-02-26T06:19:06.048Z,0.40
2019-02-26T06:20:07.430Z,0.40
2019-02-26T06:21:04.468Z,0.40
2019-02-26T06:22:04.811Z,0.40
2019-02-26T06:23:04.929Z,0.40
2019-02-26T06:24:04.512Z,0.40
2019-02-26T06:25:09.045Z,0.40
2019-02-26T06:26:05.850Z,0.40
2019-02-26T06:27:08.563Z,0.40
2019-02-26T06:28:07.557Z,0.40
2019-02-26T06:29:09.863Z,0.40
2019-02-26T06:30:07.213Z,0.40
2019-02-26T06:31:04.592Z,0.40
2019-02-26T06:32:05.243Z,0.40
2019-02-26T06:33:06.582Z,0.40
2019-02-26T06:34:06.325Z,0.40
2019-02-26T06:35:06.625Z,0.40
2019-02-26T06:36:06.434Z,0.40
2019-02-26T06:37:06.871Z,0.40
2019-02-26T06:38:05.179Z,0.40
2019-02-26T06:39:05.994Z,0.40
2019-02-26T06:40:05.509Z,0.40
2019-02-26T06:41:05.180Z,0.40
2019-02-26T06:42:05.194Z,0.40
2019-02-26T06:43:05.168Z,0.50
2019-02-26T06:44:04.434Z,0.50
2019-02-26T06:45:06.405Z,0.50
2019-02-26T06:46:08.462Z,0.50
2019-02-26T06:47:05.225Z,0.50
2019-02-26T06:48:04.596Z,0.60
2019-02-26T06:49:05.002Z,0.60
2019-02-26T06:50:06.055Z,0.70
2019-02-26T06:51:06.997Z,0.80
2019-02-26T06:52:05.984Z,0.90
2019-02-26T06:53:06.807Z,1.00
2019-02-26T06:54:04.875Z,1.00
2019-02-26T06:55:05.792Z,1.10
2019-02-26T06:56:04.397Z,1.20
2019-02-26T06:57:04.528Z,1.30
2019-02-26T06:58:05.028Z,1.40
2019-02-26T06:59:05.777Z,1.50
2019-02-26T07:00:04.346Z,1.60
2019-02-26T07:01:04.421Z,1.70
2019-02-26T07:02:04.614Z,1.70
2019-02-26T07:03:04.649Z,1.80
2019-02-26T07:04:04.800Z,1.90
2019-02-26T07:05:04.977Z,1.90
2019-02-26T07:06:04.897Z,2.00
2019-02-26T07:07:06.709Z,2.10
2019-02-26T07:08:09.722Z,2.10
2019-02-26T07:09:05.139Z,2.20
2019-02-26T07:10:04.180Z,2.30
2019-02-26T07:11:07.047Z,2.30
2019-02-26T07:12:04.982Z,2.40
2019-02-26T07:13:06.939Z,2.40
2019-02-26T07:14:05.540Z,2.40
2019-02-26T07:15:04.367Z,2.50
2019-02-26T07:16:05.211Z,2.60
2019-02-26T07:17:05.122Z,2.60
2019-02-26T07:18:05.011Z,2.70
2019-02-26T07:19:06.490Z,2.70
2019-02-26T07:20:04.680Z,2.80
2019-02-26T07:21:05.147Z,2.80
2019-02-26T07:22:05.409Z,2.90
2019-02-26T07:23:05.742Z,2.90
2019-02-26T07:24:04.593Z,2.90
2019-02-26T07:25:05.918Z,3.00
2019-02-26T07:26:04.771Z,3.00
2019-02-26T07:27:06.650Z,3.10
2019-02-26T07:28:05.298Z,3.10
2019-02-26T07:29:05.775Z,3.20
2019-02-26T07:30:04.310Z,3.20
2019-02-26T07:31:07.242Z,3.30
2019-02-26T07:32:04.219Z,3.40
2019-02-26T07:33:05.327Z,3.50
2019-02-26T07:34:05.132Z,3.60
2019-02-26T07:35:06.355Z,3.70
2019-02-26T07:36:04.671Z,3.70
2019-02-26T07:37:06.033Z,3.80
2019-02-26T07:38:04.277Z,3.90
2019-02-26T07:39:05.111Z,4.00
2019-02-26T07:40:05.643Z,4.00
2019-02-26T07:41:06.042Z,4.10
2019-02-26T07:42:11.481Z,4.20
2019-02-26T07:43:07.318Z,4.30
2019-02-26T07:44:08.715Z,4.30
2019-02-26T07:45:14.348Z,4.40
2019-02-26T07:46:04.719Z,4.50
2019-02-26T07:47:06.594Z,4.60
2019-02-26T07:48:05.158Z,4.60
2019-02-26T07:49:06.871Z,4.70
2019-02-26T07:50:06.656Z,4.80
2019-02-26T07:51:04.613Z,4.80
2019-02-26T07:52:06.570Z,4.90
2019-02-26T07:53:04.198Z,5.00
2019-02-26T07:54:04.486Z,5.00
2019-02-26T07:55:06.150Z,5.10
2019-02-26T07:56:06.192Z,5.10
2019-02-26T07:57:05.143Z,5.20
2019-02-26T07:58:06.164Z,5.20
2019-02-26T07:59:07.124Z,5.20
2019-02-26T08:00:04.770Z,5.30
2019-02-26T08:01:05.117Z,5.30
2019-02-26T08:02:06.224Z,5.40
2019-02-26T08:03:05.192Z,5.40
2019-02-26T08:04:06.174Z,5.50
2019-02-26T08:05:04.950Z,5.50
2019-02-26T08:06:07.105Z,5.50
2019-02-26T08:07:04.589Z,5.60
2019-02-26T08:08:04.740Z,5.60
2019-02-26T08:09:06.829Z,5.70
2019-02-26T08:10:06.047Z,5.70
2019-02-26T08:11:05.127Z,5.80
2019-02-26T08:12:06.514Z,5.80
2019-02-26T08:13:06.103Z,5.90
2019-02-26T08:14:04.634Z,5.90
2019-02-26T08:15:07.422Z,6.00
2019-02-26T08:16:05.109Z,6.00
2019-02-26T08:17:06.254Z,6.10
2019-02-26T08:18:05.351Z,6.10
2019-02-26T08:19:04.357Z,6.10
2019-02-26T08:20:07.341Z,6.20
2019-02-26T08:21:05.023Z,6.20
2019-02-26T08:22:04.813Z,6.30
2019-02-26T08:23:04.904Z,6.30
2019-02-26T08:24:04.450Z,6.30
2019-02-26T08:25:04.588Z,6.40
2019-02-26T08:26:04.831Z,6.40
2019-02-26T08:27:06.012Z,6.40
2019-02-26T08:28:04.671Z,6.50
2019-02-26T08:29:05.525Z,6.50
2019-02-26T08:30:06.733Z,6.60
2019-02-26T08:31:05.367Z,6.60
2019-02-26T08:32:05.229Z,6.60
2019-02-26T08:33:09.278Z,6.70
2019-02-26T08:34:04.552Z,6.70
2019-02-26T08:35:04.296Z,6.70
2019-02-26T08:36:04.484Z,6.80
2019-02-26T08:37:04.446Z,6.80
2019-02-26T08:38:06.202Z,6.80
2019-02-26T08:39:04.952Z,6.90
2019-02-26T08:40:04.331Z,6.90
2019-02-26T08:41:04.512Z,6.90
2019-02-26T08:42:04.537Z,7.00
2019-02-26T08:43:04.958Z,7.00
2019-02-26T08:44:05.102Z,7.00
2019-02-26T08:45:04.802Z,7.10
2019-02-26T08:46:06.727Z,7.10
2019-02-26T08:47:06.823Z,7.10
2019-02-26T08:48:04.895Z,7.10
2019-02-26T08:49:08.234Z,7.20
2019-02-26T08:50:07.192Z,7.20
2019-02-26T08:51:06.034Z,7.20
2019-02-26T08:52:05.052Z,7.20
2019-02-26T08:53:10.156Z,7.30
2019-02-26T08:54:04.439Z,7.30
2019-02-26T08:55:04.634Z,7.30
2019-02-26T08:56:05.329Z,7.30
2019-02-26T08:57:04.293Z,7.40
2019-02-26T08:58:04.337Z,7.40
2019-02-26T08:59:04.481Z,7.40
2019-02-26T09:00:04.559Z,7.40
2019-02-26T09:01:04.652Z,7.50
2019-02-26T09:02:04.216Z,7.50
2019-02-26T09:03:04.403Z,7.50
2019-02-26T09:04:04.770Z,7.60
2019-02-26T09:05:06.817Z,7.60
2019-02-26T09:06:12.591Z,7.60
2019-02-26T09:07:04.517Z,7.70
2019-02-26T09:08:05.916Z,7.70
2019-02-26T09:09:06.708Z,7.70
2019-02-26T09:10:07.023Z,7.80
2019-02-26T09:11:06.121Z,7.80
2019-02-26T09:12:04.868Z,7.90
2019-02-26T09:13:06.127Z,7.90
2019-02-26T09:14:06.575Z,8.00
2019-02-26T09:15:04.834Z,8.00
2019-02-26T09:16:05.983Z,8.10
2019-02-26T09:17:04.780Z,8.10
2019-02-26T09:18:05.002Z,8.20
2019-02-26T09:19:04.601Z,8.20
2019-02-26T09:20:09.097Z,8.30
2019-02-26T09:21:04.588Z,8.30
2019-02-26T09:22:04.988Z,8.30
2019-02-26T09:23:05.050Z,8.40
2019-02-26T09:24:07.567Z,8.40
2019-02-26T09:25:04.355Z,8.40
2019-02-26T09:26:06.954Z,8.50
2019-02-26T09:27:05.105Z,8.50
2019-02-26T09:28:04.767Z,8.60
2019-02-26T09:29:10.861Z,8.60
2019-02-26T09:30:05.814Z,8.60
2019-02-26T09:31:06.679Z,8.70
2019-02-26T09:32:06.854Z,8.70
2019-02-26T09:33:06.308Z,8.80
2019-02-26T09:34:04.312Z,8.80
2019-02-26T09:35:05.052Z,8.80
2019-02-26T09:36:04.237Z,8.80
2019-02-26T09:37:05.482Z,8.80
2019-02-26T09:38:04.440Z,8.90
2019-02-26T09:39:05.815Z,8.90
2019-02-26T09:40:04.960Z,8.90
2019-02-26T09:41:05.045Z,8.90
2019-02-26T09:42:06.047Z,8.90
2019-02-26T09:43:06.093Z,9.00
2019-02-26T09:44:06.671Z,9.00
2019-02-26T09:45:04.999Z,9.00
2019-02-26T09:46:06.827Z,9.10
2019-02-26T09:47:05.454Z,9.10
2019-02-26T09:48:05.212Z,9.20
2019-02-26T09:49:05.073Z,9.20
2019-02-26T09:50:04.308Z,9.30
2019-02-26T09:51:04.818Z,9.30
2019-02-26T09:52:06.454Z,9.40
2019-02-26T09:53:04.366Z,9.40
2019-02-26T09:54:04.440Z,9.50
2019-02-26T09:55:04.533Z,9.60
2019-02-26T09:56:05.065Z,9.60
2019-02-26T09:57:04.347Z,9.70
2019-02-26T09:58:04.353Z,9.80
2019-02-26T09:59:05.164Z,9.80
2019-02-26T10:00:05.040Z,9.90
2019-02-26T10:01:06.705Z,9.90
2019-02-26T10:02:06.015Z,10.00
2019-02-26T10:03:05.933Z,10.00
2019-02-26T10:04:05.352Z,10.10
2019-02-26T10:05:06.206Z,10.10
2019-02-26T10:06:05.087Z,10.20
2019-02-26T10:07:07.312Z,10.20
2019-02-26T10:08:05.378Z,10.30
2019-02-26T10:09:04.337Z,10.30
2019-02-26T10:10:06.385Z,10.30
2019-02-26T10:11:04.849Z,10.40
2019-02-26T10:12:05.450Z,10.40
2019-02-26T10:13:04.737Z,10.50
2019-02-26T10:14:05.279Z,10.50
2019-02-26T10:15:05.252Z,10.60
2019-02-26T10:16:06.426Z,10.60
2019-02-26T10:17:04.364Z,10.60
2019-02-26T10:18:06.700Z,10.70
2019-02-26T10:19:04.699Z,10.70
2019-02-26T10:20:06.753Z,10.80
2019-02-26T10:21:06.604Z,10.80
2019-02-26T10:22:07.016Z,10.90
2019-02-26T10:23:06.260Z,10.90
2019-02-26T10:24:05.041Z,10.90
2019-02-26T10:25:04.613Z,11.00
2019-02-26T10:26:05.700Z,11.10
2019-02-26T10:27:05.975Z,11.10
2019-02-26T10:28:08.508Z,11.10
2019-02-26T10:29:09.385Z,11.20
2019-02-26T10:30:05.672Z,11.20
2019-02-26T10:31:06.949Z,11.30
2019-02-26T10:32:05.040Z,11.30
2019-02-26T10:33:04.236Z,11.30
2019-02-26T10:34:07.778Z,11.40
2019-02-26T10:35:06.433Z,11.40
2019-02-26T10:36:05.374Z,11.40
2019-02-26T10:37:04.291Z,11.50
2019-02-26T10:38:06.170Z,11.50
2019-02-26T10:39:04.950Z,11.50
2019-02-26T10:40:06.820Z,11.60
2019-02-26T10:41:05.153Z,11.60
2019-02-26T10:42:04.242Z,11.60
2019-02-26T10:43:04.685Z,11.60
2019-02-26T10:44:05.216Z,11.70
2019-02-26T10:45:04.311Z,11.70
2019-02-26T10:46:05.076Z,11.70
2019-02-26T10:47:05.851Z,11.80
2019-02-26T10:48:04.912Z,11.80
2019-02-26T10:49:09.606Z,11.80
2019-02-26T10:50:05.088Z,11.90
2019-02-26T10:51:06.436Z,11.90
2019-02-26T10:52:04.924Z,11.90
2019-02-26T10:53:07.759Z,12.00
2019-02-26T10:54:06.159Z,12.00
2019-02-26T10:55:04.919Z,12.00
2019-02-26T10:56:04.324Z,12.10
2019-02-26T10:57:07.407Z,12.10
2019-02-26T10:58:07.818Z,12.10
2019-02-26T10:59:06.568Z,12.20
2019-02-26T11:00:06.234Z,12.20
2019-02-26T11:01:05.070Z,12.20
2019-02-26T11:02:04.969Z,12.20
2019-02-26T11:03:06.522Z,12.30
2019-02-26T11:04:04.558Z,12.30
2019-02-26T11:05:04.649Z,12.30
2019-02-26T11:06:05.174Z,12.40
2019-02-26T11:07:08.168Z,12.40
2019-02-26T11:08:08.402Z,12.40
2019-02-26T11:09:05.234Z,12.50
2019-02-26T11:10:04.433Z,12.50
2019-02-26T11:11:05.153Z,12.60
2019-02-26T11:12:06.319Z,12.60
2019-02-26T11:13:05.091Z,12.60
2019-02-26T11:14:05.234Z,12.60
2019-02-26T11:15:06.713Z,12.70
2019-02-26T11:16:04.730Z,12.70
2019-02-26T11:17:04.820Z,12.70
2019-02-26T11:18:04.982Z,12.70
2019-02-26T11:19:06.968Z,12.80
2019-02-26T11:20:04.471Z,12.80
2019-02-26T11:21:04.208Z,12.80
2019-02-26T11:22:04.457Z,12.90
2019-02-26T11:23:06.517Z,12.90
2019-02-26T11:24:06.078Z,12.90
2019-02-26T11:25:04.763Z,12.90
2019-02-26T11:26:06.589Z,12.90
2019-02-26T11:27:04.663Z,13.00
2019-02-26T11:28:07.283Z,13.00
2019-02-26T11:29:10.046Z,13.00
2019-02-26T11:30:05.040Z,13.00
2019-02-26T11:31:04.917Z,13.00
2019-02-26T11:32:07.564Z,13.00
2019-02-26T11:33:06.122Z,13.00
2019-02-26T11:34:07.178Z,13.10
2019-02-26T11:35:04.713Z,13.10
2019-02-26T11:36:05.418Z,13.10
2019-02-26T11:37:08.648Z,13.10
2019-02-26T11:38:04.592Z,13.10
2019-02-26T11:39:06.703Z,13.10
2019-02-26T11:40:05.496Z,13.10
2019-02-26T11:41:04.303Z,13.10
2019-02-26T11:42:04.454Z,13.20
2019-02-26T11:43:11.389Z,13.20
2019-02-26T11:44:07.110Z,13.20
2019-02-26T11:45:06.686Z,13.20
2019-02-26T11:46:06.733Z,13.20
2019-02-26T11:47:05.135Z,13.30
2019-02-26T11:48:06.099Z,13.30
2019-02-26T11:49:04.179Z,13.30
2019-02-26T11:50:06.942Z,13.40
2019-02-26T11:51:04.783Z,13.40
2019-02-26T11:52:04.921Z,13.40
2019-02-26T11:53:05.035Z,13.50
2019-02-26T11:54:04.847Z,13.50
2019-02-26T11:55:06.470Z,13.50
2019-02-26T11:56:04.423Z,13.60
2019-02-26T11:57:07.242Z,13.60
2019-02-26T11:58:10.693Z,13.60
2019-02-26T11:59:06.714Z,13.70
2019-02-26T12:00:06.690Z,13.70
2019-02-26T12:01:04.562Z,13.70
2019-02-26T12:02:06.368Z,13.80
2019-02-26T12:03:05.151Z,13.80
2019-02-26T12:04:05.950Z,13.80
2019-02-26T12:05:05.534Z,13.90
2019-02-26T12:06:06.965Z,13.90
2019-02-26T12:07:07.306Z,13.90
2019-02-26T12:08:04.225Z,14.00
2019-02-26T12:09:06.003Z,14.00
2019-02-26T12:10:09.247Z,14.00
2019-02-26T12:11:06.559Z,14.00
2019-02-26T12:12:06.097Z,14.00
2019-02-26T12:13:04.317Z,14.00
2019-02-26T12:14:04.893Z,14.10
2019-02-26T12:15:06.702Z,14.10
2019-02-26T12:16:04.537Z,14.10
2019-02-26T12:17:04.643Z,14.10
2019-02-26T12:18:04.759Z,14.10
2019-02-26T12:19:06.023Z,14.10
2019-02-26T12:20:04.833Z,14.10
2019-02-26T12:21:05.885Z,14.20
2019-02-26T12:22:05.975Z,14.20
2019-02-26T12:23:04.512Z,14.20
2019-02-26T12:24:06.491Z,14.20
2019-02-26T12:25:08.006Z,14.20
2019-02-26T12:26:04.461Z,14.20
2019-02-26T12:27:04.657Z,14.20
2019-02-26T12:28:05.997Z,14.20
2019-02-26T12:29:04.803Z,14.20
2019-02-26T12:30:06.741Z,14.20
2019-02-26T12:31:05.156Z,14.20
2019-02-26T12:32:14.361Z,14.20
2019-02-26T12:33:04.727Z,14.10
2019-02-26T12:34:04.458Z,14.10
2019-02-26T12:35:05.867Z,14.10
2019-02-26T12:36:07.347Z,14.10
2019-02-26T12:37:06.519Z,14.10
2019-02-26T12:38:17.204Z,14.20
2019-02-26T12:39:04.687Z,14.20
2019-02-26T12:40:04.950Z,14.20
2019-02-26T12:41:06.739Z,14.20
2019-02-26T12:42:04.333Z,14.20
2019-02-26T12:43:06.464Z,14.20
2019-02-26T12:44:10.166Z,14.20
2019-02-26T12:45:06.746Z,14.20
2019-02-26T12:46:08.217Z,14.20
2019-02-26T12:47:04.359Z,14.20
2019-02-26T12:48:06.357Z,14.20
2019-02-26T12:49:05.610Z,14.20
2019-02-26T12:50:05.905Z,14.20
2019-02-26T12:51:07.498Z,14.20
2019-02-26T12:52:04.532Z,14.20
2019-02-26T12:53:04.606Z,14.20
2019-02-26T12:54:06.154Z,14.20
2019-02-26T12:55:07.965Z,14.30
2019-02-26T12:56:06.833Z,14.30
2019-02-26T12:57:04.452Z,14.30
2019-02-26T12:58:04.316Z,14.30
2019-02-26T12:59:06.978Z,14.40
2019-02-26T13:00:04.318Z,14.40
2019-02-26T13:01:04.371Z,14.40
2019-02-26T13:02:05.420Z,14.40
2019-02-26T13:03:05.552Z,14.40
2019-02-26T13:04:06.061Z,14.50
2019-02-26T13:05:06.666Z,14.50
2019-02-26T13:06:05.757Z,14.50
2019-02-26T13:07:06.567Z,14.50
2019-02-26T13:08:06.138Z,14.50
2019-02-26T13:09:05.097Z,14.50
2019-02-26T13:10:05.199Z,14.50
2019-02-26T13:11:04.504Z,14.50
2019-02-26T13:12:04.819Z,14.60